Time;durP1;ratioP1;P1;durP2;ratioP2;P2;SDS_P1;SDS_P2;PMS_P1;PMS_P2;Temp;Humidity;BMP_temperature;BMP_pressure;BME280_temperature;BME280_humidity;BME280_pressure;Samples;Min_cycle;Max_cycle;Signal;HPM_P1;HPM_P2
2021/07/03 00:01:23;;;;;;;4.47;1.80;;;;;;;22.73;100.00;100509.50;4868276;29;20037;-78
2021/07/03 00:04:09;;;;;;;2.00;1.60;;;;;;;22.80;100.00;100506.31;4881700;29;20029;-78
2021/07/03 00:06:55;;;;;;;5.18;2.00;;;;;;;22.75;100.00;100507.59;4882110;29;20029;-78
2021/07/03 00:09:41;;;;;;;4.38;2.00;;;;;;;22.63;100.00;100503.13;4881753;29;20037;-78
2021/07/03 00:12:26;;;;;;;3.47;1.60;;;;;;;22.70;100.00;100497.22;4867942;29;20037;-77
2021/07/03 00:15:15;;;;;;;5.78;2.08;;;;;;;22.43;100.00;100495.63;4881863;29;20520;-78
2021/07/03 00:18:01;;;;;;;5.00;1.67;;;;;;;22.54;100.00;100498.41;4882267;29;20163;-78
2021/07/03 00:20:47;;;;;;;2.15;1.73;;;;;;;22.55;100.00;100495.63;4867137;29;20028;-77
2021/07/03 00:23:33;;;;;;;2.92;1.90;;;;;;;22.32;100.00;100493.69;4882006;29;20407;-78
2021/07/03 00:26:19;;;;;;;4.88;1.70;;;;;;;22.29;100.00;100499.22;4867677;29;20020;-78
2021/07/03 00:29:04;;;;;;;6.38;1.75;;;;;;;22.36;100.00;100495.19;4882061;29;20032;-77
2021/07/03 00:31:50;;;;;;;3.53;1.73;;;;;;;22.21;100.00;100496.25;4881937;29;20032;-76
2021/07/03 00:34:36;;;;;;;4.15;1.80;;;;;;;22.46;100.00;100488.28;4867199;29;20036;-77
2021/07/03 00:37:22;;;;;;;3.60;2.08;;;;;;;22.25;100.00;100489.72;4881383;29;20029;-77
2021/07/03 00:40:09;;;;;;;2.55;1.83;;;;;;;22.25;100.00;100504.88;4881265;29;20028;-77
2021/07/03 00:42:55;;;;;;;5.22;1.75;;;;;;;22.23;100.00;100502.31;4867146;29;20025;-77
2021/07/03 00:45:41;;;;;;;3.70;2.10;;;;;;;22.33;100.00;100495.41;4880433;29;20049;-77
2021/07/03 00:48:27;;;;;;;2.72;1.90;;;;;;;22.04;100.00;100506.34;4868732;29;20029;-76
2021/07/03 00:51:13;;;;;;;5.53;2.20;;;;;;;22.18;100.00;100503.63;4885095;29;20033;-76
2021/07/03 00:53:59;;;;;;;5.03;1.95;;;;;;;22.10;100.00;100496.09;4885490;29;20040;-76
2021/07/03 00:56:45;;;;;;;4.72;1.98;;;;;;;22.47;100.00;100506.00;4885095;29;20358;-76
2021/07/03 00:59:39;;;;;;;3.30;2.20;;;;;;;22.10;100.00;100493.44;4885251;29;20069;-76
2021/07/03 01:02:24;;;;;;;3.70;2.25;;;;;;;21.91;100.00;100495.63;4884876;29;20101;-77
2021/07/03 01:05:11;;;;;;;5.22;2.40;;;;;;;21.90;100.00;100495.78;4884950;29;20427;-77
2021/07/03 01:07:57;;;;;;;4.93;2.40;;;;;;;22.10;100.00;100497.94;4885446;29;20033;-77
2021/07/03 01:10:43;;;;;;;5.18;2.58;;;;;;;22.09;100.00;100502.41;4870626;29;20378;-77
2021/07/03 01:13:30;;;;;;;4.35;2.25;;;;;;;22.02;100.00;100505.63;4884486;29;20033;-77
2021/07/03 01:16:15;;;;;;;7.85;2.65;;;;;;;21.81;100.00;100504.38;4869758;29;20037;-77
2021/07/03 01:19:01;;;;;;;6.25;2.60;;;;;;;22.01;100.00;100503.88;4884730;29;20048;-77
2021/07/03 01:21:51;;;;;;;4.25;2.35;;;;;;;22.02;100.00;100503.78;4884521;29;20064;-77
2021/07/03 01:24:38;;;;;;;3.55;2.20;;;;;;;22.06;100.00;100499.09;4884463;29;20033;-77
2021/07/03 01:27:24;;;;;;;8.40;2.30;;;;;;;22.02;100.00;100482.44;4884531;29;20028;-77
2021/07/03 01:30:12;;;;;;;6.15;2.28;;;;;;;21.87;100.00;100483.47;4884679;29;20029;-77
2021/07/03 01:32:58;;;;;;;6.85;2.20;;;;;;;22.05;100.00;100482.22;4869909;29;20029;-77
2021/07/03 01:35:44;;;;;;;6.70;2.33;;;;;;;21.69;100.00;100481.16;4884327;29;20039;-77
2021/07/03 01:38:30;;;;;;;3.17;2.10;;;;;;;22.02;100.00;100481.59;4870683;29;20501;-77
2021/07/03 01:41:16;;;;;;;2.97;2.22;;;;;;;21.66;100.00;100492.03;4870084;29;20037;-77
2021/07/03 01:44:02;;;;;;;6.28;2.30;;;;;;;21.86;100.00;100494.25;4884275;29;20136;-77
2021/07/03 01:46:48;;;;;;;5.97;2.03;;;;;;;21.86;100.00;100489.75;4883268;29;20104;-77
2021/07/03 01:49:40;;;;;;;4.22;2.25;;;;;;;21.77;100.00;100494.84;4884153;29;20056;-77
2021/07/03 01:52:26;;;;;;;6.10;2.25;;;;;;;21.78;100.00;100492.09;4884146;29;20029;-77
2021/07/03 01:55:12;;;;;;;4.68;2.20;;;;;;;21.45;100.00;100498.75;4870390;29;20091;-77
2021/07/03 01:57:58;;;;;;;5.65;2.15;;;;;;;21.49;100.00;100502.94;4869218;29;20072;-77
2021/07/03 02:00:44;;;;;;;3.47;2.03;;;;;;;21.37;100.00;100501.94;4883696;29;20024;-77
2021/07/03 02:03:30;;;;;;;2.72;2.00;;;;;;;21.63;100.00;100505.56;4883277;29;20047;-76
2021/07/03 02:06:16;;;;;;;6.38;2.25;;;;;;;21.49;100.00;100493.13;4869953;29;20044;-77
2021/07/03 02:09:02;;;;;;;4.32;2.08;;;;;;;21.56;100.00;100483.78;4884027;29;20040;-77
2021/07/03 02:11:48;;;;;;;4.15;2.10;;;;;;;21.60;100.00;100487.97;4870696;29;20029;-77
2021/07/03 02:14:34;;;;;;;6.55;2.20;;;;;;;21.43;100.00;100488.22;4869379;29;20060;-77
2021/07/03 02:17:20;;;;;;;4.32;2.25;;;;;;;21.49;100.00;100490.47;4883871;29;20033;-76
2021/07/03 02:20:06;;;;;;;4.15;2.30;;;;;;;20.94;100.00;100483.50;4883687;29;20029;-77
2021/07/03 02:22:52;;;;;;;5.45;2.10;;;;;;;21.19;100.00;100494.28;4868948;29;20104;-77
2021/07/03 02:25:38;;;;;;;3.38;2.20;;;;;;;21.19;100.00;100486.28;4869851;29;20351;-77
2021/07/03 02:28:24;;;;;;;3.28;2.30;;;;;;;21.13;100.00;100478.69;4869640;29;20111;-77
2021/07/03 02:31:10;;;;;;;3.17;1.80;;;;;;;21.02;100.00;100479.38;4869876;29;20442;-77
2021/07/03 02:33:56;;;;;;;4.13;2.42;;;;;;;20.89;100.00;100483.72;4883395;29;20112;-77
2021/07/03 02:36:42;;;;;;;4.85;2.03;;;;;;;20.84;100.00;100488.50;4883888;29;20171;-78
2021/07/03 02:39:27;;;;;;;7.53;2.15;;;;;;;21.05;100.00;100492.50;4868611;29;20033;-78
2021/07/03 02:42:13;;;;;;;3.80;2.00;;;;;;;21.21;100.00;100487.91;4870397;29;20033;-78
2021/07/03 02:44:59;;;;;;;4.55;2.40;;;;;;;20.81;100.00;100491.34;4882619;29;20124;-77
2021/07/03 02:47:45;;;;;;;2.08;1.88;;;;;;;20.87;100.00;100488.31;4869324;29;20025;-77
2021/07/03 02:50:31;;;;;;;3.83;1.80;;;;;;;20.91;100.00;100491.63;4869206;29;20029;-77
2021/07/03 02:53:17;;;;;;;4.40;2.08;;;;;;;20.81;100.00;100494.00;4868604;29;20036;-77
2021/07/03 02:56:03;;;;;;;2.75;2.20;;;;;;;20.80;100.00;100494.97;4883339;29;20039;-76
2021/07/03 02:58:49;;;;;;;3.47;2.33;;;;;;;20.91;100.00;100502.28;4882940;29;20028;-77
2021/07/03 03:01:35;;;;;;;4.03;1.92;;;;;;;20.59;100.00;100506.97;4883433;29;20025;-77
2021/07/03 03:04:22;;;;;;;2.58;2.00;;;;;;;20.39;100.00;100509.13;4868470;29;20032;-76
2021/07/03 03:07:08;;;;;;;2.67;2.00;;;;;;;20.64;100.00;100514.66;4882338;29;20100;-77
2021/07/03 03:09:54;;;;;;;5.03;1.90;;;;;;;20.53;100.00;100507.34;4868626;29;20403;-77
2021/07/03 03:12:40;;;;;;;3.53;2.10;;;;;;;20.65;100.00;100511.06;4882288;29;20025;-77
2021/07/03 03:15:26;;;;;;;2.70;2.25;;;;;;;20.71;100.00;100506.22;4868497;29;20029;-76
2021/07/03 03:18:12;;;;;;;4.25;2.30;;;;;;;20.79;100.00;100517.25;4883105;29;20083;-76
2021/07/03 03:20:58;;;;;;;4.50;2.45;;;;;;;20.62;100.00;100519.22;4882633;29;20057;-77
2021/07/03 03:23:43;;;;;;;2.80;2.13;;;;;;;20.53;100.00;100525.13;4868949;29;20033;-77
2021/07/03 03:26:29;;;;;;;4.75;2.22;;;;;;;20.64;100.00;100522.63;4882836;29;20028;-77
2021/07/03 03:29:15;;;;;;;2.75;2.08;;;;;;;20.31;100.00;100522.91;4881520;29;20489;-77
2021/07/03 03:32:01;;;;;;;4.20;2.28;;;;;;;20.20;100.00;100527.13;4882916;29;20028;-77
2021/07/03 03:34:46;;;;;;;3.58;2.20;;;;;;;20.11;100.00;100523.25;4882434;29;20067;-77
2021/07/03 03:37:32;;;;;;;3.42;2.20;;;;;;;20.28;100.00;100530.19;4868285;29;20029;-77
2021/07/03 03:40:18;;;;;;;6.95;2.45;;;;;;;20.39;100.00;100530.41;4882163;29;20037;-77
2021/07/03 03:43:04;;;;;;;5.03;2.22;;;;;;;20.42;100.00;100530.25;4868422;29;20032;-77
2021/07/03 03:45:50;;;;;;;6.75;2.42;;;;;;;20.38;100.00;100526.91;4868560;29;20077;-78
2021/07/03 03:48:35;;;;;;;3.97;2.28;;;;;;;20.11;100.00;100525.91;4868158;29;20039;-77
2021/07/03 03:51:22;;;;;;;2.85;2.30;;;;;;;20.12;100.00;100526.75;4881979;29;20040;-77
2021/07/03 03:54:07;;;;;;;3.92;2.20;;;;;;;20.15;100.00;100537.19;4867446;29;20045;-78
2021/07/03 03:59:59;;;;;;;6.32;2.35;;;;;;;20.27;100.00;100534.69;4880586;29;20021;-77
2021/07/03 04:02:45;;;;;;;5.38;2.35;;;;;;;20.43;100.00;100545.25;4866857;29;20465;-77
2021/07/03 04:05:31;;;;;;;4.07;2.50;;;;;;;20.29;100.00;100547.91;4868771;29;20036;-77
2021/07/03 04:08:17;;;;;;;6.75;2.45;;;;;;;20.43;100.00;100543.47;4867772;29;20021;-77
2021/07/03 04:11:03;;;;;;;3.38;2.00;;;;;;;20.70;100.00;100546.25;4867877;29;20029;-78
2021/07/03 04:13:49;;;;;;;2.72;2.35;;;;;;;20.42;100.00;100547.06;4868656;29;20359;-77
2021/07/03 04:16:35;;;;;;;3.40;2.40;;;;;;;20.41;100.00;100548.00;4866897;29;20111;-77
2021/07/03 04:19:21;;;;;;;7.70;2.63;;;;;;;20.47;100.00;100539.66;4881930;29;20039;-77
2021/07/03 04:22:07;;;;;;;2.80;2.40;;;;;;;20.62;100.00;100541.38;4867788;29;20115;-77
2021/07/03 04:24:52;;;;;;;3.85;2.10;;;;;;;20.59;100.00;100546.91;4867520;29;20079;-77
2021/07/03 04:27:41;;;;;;;3.05;2.38;;;;;;;20.52;100.00;100550.00;4881097;29;20347;-77
2021/07/03 04:30:27;;;;;;;5.35;2.40;;;;;;;20.49;100.00;100556.38;4867617;29;20029;-77
2021/07/03 04:33:13;;;;;;;4.13;2.42;;;;;;;21.05;100.00;100558.25;4867066;29;20029;-77
2021/07/03 04:35:59;;;;;;;3.70;2.60;;;;;;;21.30;100.00;100558.41;4881601;29;20048;-77
2021/07/03 04:38:44;;;;;;;5.10;2.60;;;;;;;21.58;100.00;100561.84;4867464;29;20029;-77
2021/07/03 04:41:30;;;;;;;3.15;2.40;;;;;;;21.82;100.00;100562.13;4868473;29;20422;-78
2021/07/03 04:44:17;;;;;;;8.00;2.78;;;;;;;21.76;100.00;100559.84;4866817;29;20053;-77
2021/07/03 04:47:03;;;;;;;5.63;2.65;;;;;;;21.92;100.00;100556.06;4867620;29;20025;-78
2021/07/03 04:49:49;;;;;;;3.78;2.40;;;;;;;22.04;100.00;100563.25;4881765;29;20039;-77
2021/07/03 04:52:36;;;;;;;3.35;2.33;;;;;;;21.96;100.00;100570.91;4866483;29;20040;-78
2021/07/03 04:55:22;;;;;;;5.10;2.30;;;;;;;22.03;100.00;100568.69;4881649;29;20024;-78
2021/07/03 04:58:08;;;;;;;8.20;2.63;;;;;;;21.95;100.00;100574.50;4867555;29;20376;-78
2021/07/03 05:00:53;;;;;;;5.30;2.35;;;;;;;22.00;100.00;100577.75;4867294;29;20033;-76
2021/07/03 05:03:39;;;;;;;5.20;2.55;;;;;;;21.90;100.00;100576.63;4880680;29;20040;-76
2021/07/03 05:06:25;;;;;;;3.88;2.33;;;;;;;21.89;100.00;100574.94;4867426;29;20104;-76
2021/07/03 05:09:11;;;;;;;4.18;2.67;;;;;;;22.21;100.00;100576.31;4881277;29;20104;-77
2021/07/03 05:11:57;;;;;;;3.05;2.13;;;;;;;22.44;100.00;100582.75;4881685;29;20048;-77
2021/07/03 05:14:43;;;;;;;3.40;2.33;;;;;;;22.23;100.00;100585.06;4881181;29;20066;-76
2021/07/03 05:17:29;;;;;;;4.18;2.60;;;;;;;22.45;100.00;100590.66;4881425;29;20052;-77
2021/07/03 05:20:17;;;;;;;3.67;2.60;;;;;;;22.63;100.00;100586.75;4880935;29;20487;-77
2021/07/03 05:23:02;;;;;;;5.97;2.40;;;;;;;22.56;100.00;100580.16;4881202;29;20029;-77
2021/07/03 05:25:52;;;;;;;4.78;2.80;;;;;;;22.75;100.00;100588.56;4881347;29;20108;-77
2021/07/03 05:28:38;;;;;;;2.85;2.10;;;;;;;22.80;100.00;100583.78;4866648;29;20039;-77
2021/07/03 05:31:24;;;;;;;6.72;1.95;;;;;;;22.99;100.00;100586.03;4880516;29;20040;-77
2021/07/03 05:34:09;;;;;;;6.63;2.63;;;;;;;23.04;100.00;100586.56;4881060;29;20469;-77
2021/07/03 05:36:57;;;;;;;7.20;2.30;;;;;;;22.90;100.00;100592.88;4870387;29;20040;-78
2021/07/03 05:39:42;;;;;;;4.75;2.60;;;;;;;22.93;100.00;100584.63;4883227;29;20036;-77
2021/07/03 05:42:28;;;;;;;4.93;1.98;;;;;;;22.98;100.00;100590.50;4870317;29;20427;-77
2021/07/03 05:45:15;;;;;;;4.60;2.20;;;;;;;23.09;100.00;100584.41;4868235;29;20056;-77
2021/07/03 05:48:02;;;;;;;9.80;2.50;;;;;;;23.13;100.00;100585.88;4870899;29;20033;-77
2021/07/03 05:50:48;;;;;;;6.53;2.60;;;;;;;23.38;100.00;100583.19;4869458;29;20116;-77
2021/07/03 05:53:34;;;;;;;5.85;2.20;;;;;;;23.27;100.00;100583.13;4883081;29;20029;-77
2021/07/03 05:56:20;;;;;;;3.45;2.00;;;;;;;24.06;100.00;100589.72;4868708;29;20097;-77
2021/07/03 05:59:06;;;;;;;3.70;2.00;;;;;;;23.75;100.00;100584.88;4869571;29;20442;-78
2021/07/03 06:01:52;;;;;;;3.75;2.30;;;;;;;23.55;100.00;100580.19;4869131;29;20067;-77
2021/07/03 06:04:38;;;;;;;2.35;2.00;;;;;;;23.46;100.00;100580.81;4868589;29;20060;-78
2021/07/03 06:07:25;;;;;;;4.13;2.10;;;;;;;23.48;100.00;100581.59;4868777;29;20025;-77
2021/07/03 06:10:12;;;;;;;3.30;2.40;;;;;;;23.42;100.00;100580.19;4882173;29;20422;-78
2021/07/03 06:12:58;;;;;;;2.55;1.92;;;;;;;23.67;100.00;100575.75;4868164;29;20056;-77
2021/07/03 06:15:43;;;;;;;2.67;2.40;;;;;;;23.52;100.00;100585.75;4882445;29;20039;-78
2021/07/03 06:18:29;;;;;;;5.45;2.10;;;;;;;24.09;100.00;100583.28;4882689;29;20194;-76
2021/07/03 06:21:15;;;;;;;4.53;2.50;;;;;;;23.95;100.00;100584.31;4882522;29;20128;-77
2021/07/03 06:24:01;;;;;;;3.35;2.30;;;;;;;23.93;100.00;100588.94;4882464;29;20043;-76
2021/07/03 06:26:46;;;;;;;4.07;2.20;;;;;;;24.40;100.00;100585.34;4882430;29;20113;-79
2021/07/03 06:29:34;;;;;;;4.63;2.30;;;;;;;24.29;100.00;100575.47;4868723;29;20021;-78
2021/07/03 06:32:20;;;;;;;5.63;2.38;;;;;;;24.37;100.00;100566.81;4868881;29;20040;-78
2021/07/03 06:35:06;;;;;;;3.05;2.45;;;;;;;24.48;100.00;100573.09;4868891;29;20079;-76
2021/07/03 06:37:52;;;;;;;7.22;2.58;;;;;;;24.41;100.00;100576.34;4881866;29;20037;-76
2021/07/03 06:40:38;;;;;;;3.15;2.20;;;;;;;24.77;100.00;100573.53;4867939;29;20029;-77
2021/07/03 06:43:24;;;;;;;6.32;2.30;;;;;;;24.36;100.00;100579.38;4833972;29;1169189;-76
2021/07/03 06:46:09;;;;;;;6.88;2.30;;;;;;;24.14;100.00;100579.28;4881127;29;20120;-77
2021/07/03 06:48:56;;;;;;;5.25;2.30;;;;;;;24.23;100.00;100585.78;4883267;29;20065;-77
2021/07/03 06:51:42;;;;;;;19.33;2.78;;;;;;;23.76;100.00;100586.63;4868324;29;20040;-77
2021/07/03 06:54:28;;;;;;;14.05;2.85;;;;;;;23.49;100.00;100588.63;4882903;29;20028;-77
2021/07/03 06:57:14;;;;;;;2.58;2.33;;;;;;;23.66;100.00;100595.44;4882735;29;20388;-78
2021/07/03 07:00:00;;;;;;;4.93;2.28;;;;;;;23.64;100.00;100594.69;4868627;29;20029;-78
2021/07/03 07:02:45;;;;;;;4.35;2.50;;;;;;;23.82;100.00;100599.53;4868801;29;20032;-78
2021/07/03 07:05:31;;;;;;;6.97;2.83;;;;;;;23.52;100.00;100597.28;4869399;29;20036;-77
2021/07/03 07:08:17;;;;;;;7.43;2.83;;;;;;;23.02;100.00;100600.00;4868525;29;20028;-77
2021/07/03 07:11:04;;;;;;;4.78;2.60;;;;;;;23.40;100.00;100594.66;4882547;29;20421;-77
2021/07/03 07:13:50;;;;;;;8.70;2.88;;;;;;;23.36;100.00;100588.66;4882641;29;20120;-77
2021/07/03 07:16:35;;;;;;;6.13;2.58;;;;;;;23.07;100.00;100587.19;4882491;29;20415;-77
2021/07/03 07:19:21;;;;;;;5.15;2.60;;;;;;;23.34;100.00;100589.72;4882993;29;20033;-77
2021/07/03 07:22:07;;;;;;;7.88;2.70;;;;;;;23.91;100.00;100587.31;4881221;29;20517;-77
2021/07/03 07:24:53;;;;;;;5.05;2.78;;;;;;;24.10;100.00;100587.69;4882922;29;20029;-77
2021/07/03 07:27:39;;;;;;;7.82;3.05;;;;;;;24.02;100.00;100590.91;4882330;29;20469;-77
2021/07/03 07:30:24;;;;;;;6.32;3.17;;;;;;;24.13;100.00;100587.44;4868650;29;20037;-77
2021/07/03 07:33:10;;;;;;;3.92;2.65;;;;;;;24.27;100.00;100589.94;4867856;29;20117;-77
2021/07/03 07:35:56;;;;;;;5.20;2.72;;;;;;;25.27;100.00;100595.38;4882426;29;20021;-77
2021/07/03 07:38:42;;;;;;;5.07;2.38;;;;;;;25.10;100.00;100598.53;4882401;29;20041;-77
2021/07/03 07:41:28;;;;;;;5.72;3.00;;;;;;;25.43;100.00;100598.56;4867882;29;20021;-77
2021/07/03 07:44:13;;;;;;;9.05;3.47;;;;;;;25.90;100.00;100595.53;4881804;29;20499;-77
2021/07/03 07:46:59;;;;;;;7.47;2.80;;;;;;;25.24;100.00;100589.41;4882083;29;20327;-77
2021/07/03 07:49:45;;;;;;;4.82;2.30;;;;;;;25.55;100.00;100589.50;4867996;29;20035;-77
2021/07/03 07:52:31;;;;;;;3.95;2.67;;;;;;;25.77;100.00;100594.00;4881616;29;20025;-77
2021/07/03 07:55:17;;;;;;;4.63;2.35;;;;;;;26.24;100.00;100596.31;4868013;29;20470;-77
2021/07/03 07:58:03;;;;;;;7.60;2.30;;;;;;;26.23;100.00;100602.66;4866587;29;20044;-77
2021/07/03 08:00:49;;;;;;;4.20;2.55;;;;;;;26.53;100.00;100594.69;4881894;29;20028;-77
2021/07/03 08:03:35;;;;;;;5.43;2.53;;;;;;;27.50;100.00;100598.66;4881628;29;20052;-77
2021/07/03 08:06:21;;;;;;;6.65;2.65;;;;;;;27.09;100.00;100601.44;4882176;29;20032;-77
2021/07/03 08:09:06;;;;;;;9.88;2.80;;;;;;;26.82;100.00;100603.84;4867557;29;20480;-77
2021/07/03 08:11:52;;;;;;;5.72;2.78;;;;;;;27.22;100.00;100605.66;4866619;29;20025;-77
2021/07/03 08:14:39;;;;;;;6.10;2.42;;;;;;;26.64;100.00;100600.88;4881013;29;20029;-77
2021/07/03 08:17:24;;;;;;;3.55;2.45;;;;;;;27.31;100.00;100596.75;4867349;29;20109;-77
2021/07/03 08:20:17;;;;;;;5.45;2.55;;;;;;;27.23;100.00;100606.47;4881941;29;20029;-77
2021/07/03 08:23:03;;;;;;;5.03;2.47;;;;;;;27.40;100.00;100603.16;4867264;29;20037;-77
2021/07/03 08:25:49;;;;;;;4.43;2.60;;;;;;;26.83;100.00;100609.06;4867442;29;20043;-77
2021/07/03 08:28:35;;;;;;;7.15;3.38;;;;;;;25.36;100.00;100607.22;4880591;29;20059;-77
2021/07/03 08:31:20;;;;;;;4.68;3.22;;;;;;;24.96;100.00;100608.66;4867286;29;20033;-77
2021/07/03 08:34:06;;;;;;;3.53;2.90;;;;;;;24.40;100.00;100613.00;4881010;29;20366;-77
2021/07/03 08:36:52;;;;;;;5.13;3.60;;;;;;;25.00;100.00;100608.25;4881789;29;20032;-78
2021/07/03 08:39:38;;;;;;;6.25;3.72;;;;;;;25.30;100.00;100607.72;4866757;29;20036;-77
2021/07/03 08:42:23;;;;;;;4.75;3.10;;;;;;;25.92;100.00;100608.84;4881007;29;20387;-76
2021/07/03 08:45:11;;;;;;;5.32;2.92;;;;;;;26.08;100.00;100606.63;4880940;29;20423;-76
2021/07/03 08:47:57;;;;;;;8.70;3.15;;;;;;;26.51;100.00;100602.88;4881492;29;20032;-77
2021/07/03 08:50:42;;;;;;;5.13;2.85;;;;;;;26.25;100.00;100603.38;4881126;29;20036;-77
2021/07/03 08:53:28;;;;;;;3.40;3.10;;;;;;;26.14;100.00;100595.38;4880961;29;20025;-77
2021/07/03 08:56:14;;;;;;;3.90;2.80;;;;;;;26.81;100.00;100594.91;4881265;29;20048;-77
2021/07/03 08:59:00;;;;;;;6.20;3.22;;;;;;;27.66;100.00;100588.22;4880801;29;20551;-77
2021/07/03 09:01:57;;;;;;;4.47;2.80;;;;;;;27.17;100.00;100588.16;4881081;29;20029;-77
2021/07/03 09:04:43;;;;;;;6.55;3.05;;;;;;;27.72;100.00;100584.97;4866105;29;20028;-77
2021/07/03 09:07:34;;;;;;;3.00;2.67;;;;;;;27.58;100.00;100579.97;4881471;29;20029;-77
2021/07/03 09:10:21;;;;;;;6.65;3.22;;;;;;;27.87;100.00;100588.13;4882732;29;20036;-77
2021/07/03 09:13:08;;;;;;;4.55;3.05;;;;;;;27.69;100.00;100570.94;4870611;29;20032;-77
2021/07/03 09:15:54;;;;;;;5.40;3.15;;;;;;;27.95;100.00;100572.13;4884252;29;20069;-77
2021/07/03 09:18:40;;;;;;;9.48;3.20;;;;;;;28.17;100.00;100570.03;4869942;29;20039;-77
2021/07/03 09:21:26;;;;;;;5.85;2.95;;;;;;;27.95;100.00;100572.13;4869940;29;20509;-78
2021/07/03 09:24:13;;;;;;;3.83;2.70;;;;;;;27.65;100.00;100567.69;4884628;29;20041;-77
2021/07/03 09:27:03;;;;;;;7.18;3.22;;;;;;;27.34;100.00;100558.81;4870110;29;20021;-77
2021/07/03 09:29:53;;;;;;;6.65;3.00;;;;;;;27.65;100.00;100558.75;4884673;29;20033;-77
2021/07/03 09:32:39;;;;;;;6.45;2.88;;;;;;;27.79;100.00;100563.72;4870545;29;20029;-77
2021/07/03 09:35:25;;;;;;;3.78;2.92;;;;;;;28.11;100.00;100549.03;4884215;29;20124;-77
2021/07/03 09:38:13;;;;;;;3.30;2.95;;;;;;;28.37;100.00;100552.00;4884481;29;20088;-77
2021/07/03 09:41:21;;;;;;;6.93;3.00;;;;;;;28.34;100.00;100539.66;4883969;29;20037;-77
2021/07/03 09:44:10;;;;;;;6.13;3.00;;;;;;;29.00;100.00;100546.78;4884185;29;20131;-77
2021/07/03 09:46:56;;;;;;;4.40;2.90;;;;;;;29.74;96.94;100550.28;4869693;29;20037;-77
2021/07/03 09:49:42;;;;;;;6.18;3.10;;;;;;;28.63;98.67;100543.19;4869501;29;20052;-77
2021/07/03 09:52:28;;;;;;;7.15;2.88;;;;;;;29.09;97.86;100548.59;4883668;29;20370;-77
2021/07/03 09:55:13;;;;;;;4.32;2.50;;;;;;;29.00;97.22;100541.41;4883906;29;20036;-77
2021/07/03 09:58:00;;;;;;;3.90;2.70;;;;;;;28.87;100.00;100532.75;4883633;29;20128;-77
2021/07/03 10:00:45;;;;;;;7.95;2.70;;;;;;;29.22;100.00;100530.22;4884353;29;20343;-77
2021/07/03 10:03:31;;;;;;;4.85;2.42;;;;;;;28.31;100.00;100533.69;4883523;29;20035;-78
2021/07/03 10:06:27;;;;;;;7.25;2.65;;;;;;;29.03;94.99;100533.00;4884164;29;20040;-77
2021/07/03 10:09:25;;;;;;;3.70;2.42;;;;;;;28.26;90.49;100533.28;4883333;29;20481;-77
2021/07/03 10:12:16;;;;;;;5.20;2.38;;;;;;;28.72;88.67;100531.53;4883943;29;20060;-77
2021/07/03 10:15:03;;;;;;;15.50;3.30;;;;;;;28.37;91.79;100530.44;4869907;29;20104;-77
2021/07/03 10:17:49;;;;;;;15.60;6.53;;;;;;;28.84;88.26;100530.34;4883479;29;20152;-78
2021/07/03 10:20:35;;;;;;;4.53;2.42;;;;;;;28.58;90.72;100517.66;4869062;29;20055;-78
2021/07/03 10:23:21;;;;;;;48.22;18.83;;;;;;;29.44;81.22;100518.16;4869145;29;20033;-78
2021/07/03 10:26:07;;;;;;;18.70;7.47;;;;;;;29.19;79.88;100518.88;4882900;29;20021;-79
2021/07/03 10:28:52;;;;;;;23.80;7.93;;;;;;;29.11;80.21;100506.13;4883470;29;20060;-78
2021/07/03 10:31:38;;;;;;;16.05;5.80;;;;;;;29.39;79.42;100513.22;4883434;29;20033;-76
2021/07/03 10:34:35;;;;;;;5.95;3.58;;;;;;;29.30;81.49;100510.56;4868618;29;20037;-77
2021/07/03 10:37:32;;;;;;;58.65;22.77;;;;;;;29.39;84.26;100513.22;4868981;29;20495;-77
2021/07/03 10:40:27;;;;;;;11.93;5.70;;;;;;;28.66;83.98;100504.28;4881748;29;20055;-77
2021/07/03 10:43:14;;;;;;;5.22;3.40;;;;;;;28.42;85.63;100510.19;4869073;29;20120;-77
2021/07/03 10:46:00;;;;;;;10.40;3.58;;;;;;;28.51;86.32;100501.22;4846050;29;20136;-77
2021/07/03 10:48:55;;;;;;;3.28;2.17;;;;;;;28.43;91.85;100503.78;4846993;29;20393;-77
2021/07/03 10:51:41;;;;;;;5.95;2.45;;;;;;;28.55;90.28;100499.94;4845220;29;20026;-77
2021/07/03 10:54:28;;;;;;;5.00;2.15;;;;;;;27.92;91.42;100497.84;4845131;29;20520;-77
2021/07/03 10:57:25;;;;;;;6.18;2.30;;;;;;;28.02;91.38;100493.31;4845846;29;20084;-77
2021/07/03 11:00:12;;;;;;;5.72;2.40;;;;;;;28.24;89.35;100493.00;4845874;29;20030;-77
2021/07/03 11:02:58;;;;;;;5.28;2.50;;;;;;;28.87;85.20;100491.44;4845786;29;20034;-77
2021/07/03 11:05:43;;;;;;;7.10;2.40;;;;;;;29.62;81.36;100494.78;4845902;29;20033;-77
2021/07/03 11:08:37;;;;;;;4.57;2.30;;;;;;;29.08;83.84;100498.34;4846163;29;20475;-77
2021/07/03 11:11:22;;;;;;;3.65;2.10;;;;;;;28.56;84.25;100488.13;4845725;29;20034;-77
2021/07/03 11:14:08;;;;;;;3.25;2.30;;;;;;;29.10;80.58;100488.25;4846066;29;20107;-77
2021/07/03 11:16:59;;;;;;;2.58;2.00;;;;;;;28.76;78.30;100480.84;4845443;29;20353;-77
2021/07/03 11:19:52;;;;;;;2.08;1.73;;;;;;;29.43;72.57;100481.38;4844467;29;20116;-77
2021/07/03 11:22:43;;;;;;;3.75;1.70;;;;;;;29.56;70.28;100471.91;4844622;29;20108;-77
2021/07/03 11:25:33;;;;;;;5.15;2.00;;;;;;;29.78;75.22;100466.03;4845490;29;20448;-77
2021/07/03 11:28:22;;;;;;;2.13;1.73;;;;;;;29.61;73.51;100458.81;4845115;29;20042;-77
2021/07/03 11:31:08;;;;;;;3.70;1.70;;;;;;;29.60;68.46;100467.91;4845395;29;20532;-77
2021/07/03 11:33:54;;;;;;;4.15;1.80;;;;;;;28.84;67.65;100462.06;4844601;29;20048;-77
2021/07/03 11:36:40;;;;;;;2.67;1.77;;;;;;;28.92;68.65;100468.41;4845137;29;20030;-77
2021/07/03 11:39:26;;;;;;;5.68;1.98;;;;;;;29.51;71.96;100476.06;4844809;29;20042;-77
2021/07/03 11:42:11;;;;;;;3.70;1.70;;;;;;;29.31;74.12;100469.94;4844589;29;20445;-77
2021/07/03 11:44:58;;;;;;;9.30;2.05;;;;;;;29.10;76.37;100473.91;4869249;29;20041;-77
2021/07/03 11:47:52;;;;;;;4.97;1.60;;;;;;;29.20;76.04;100472.84;4882082;29;20567;-77
2021/07/03 11:50:43;;;;;;;2.85;1.52;;;;;;;29.43;72.94;100473.25;4881943;29;20466;-77
2021/07/03 11:53:31;;;;;;;5.13;1.67;;;;;;;29.32;72.54;100476.16;4881699;29;20490;-78
2021/07/03 11:56:17;;;;;;;7.15;1.90;;;;;;;29.10;72.79;100477.47;4882329;29;20036;-77
2021/07/03 11:59:03;;;;;;;7.05;2.13;;;;;;;29.40;71.97;100479.81;4868938;29;20462;-77
2021/07/03 12:01:49;;;;;;;2.75;1.52;;;;;;;29.75;67.85;100489.84;4881653;29;20044;-77
2021/07/03 12:04:36;;;;;;;3.40;1.80;;;;;;;30.14;65.19;100486.66;4880420;29;20124;-77
2021/07/03 12:07:22;;;;;;;5.50;1.70;;;;;;;30.16;65.04;100487.38;4868421;29;20025;-78
2021/07/03 12:10:10;;;;;;;11.23;2.10;;;;;;;30.27;65.92;100479.03;4867326;29;20040;-78
2021/07/03 12:12:56;;;;;;;3.85;1.65;;;;;;;30.33;65.25;100477.50;4867505;29;20028;-78
2021/07/03 12:15:41;;;;;;;2.40;1.60;;;;;;;30.74;63.25;100480.34;4881500;29;20480;-77
2021/07/03 12:18:31;;;;;;;8.63;2.10;;;;;;;30.51;64.84;100475.63;4881957;29;20029;-77
2021/07/03 12:21:18;;;;;;;5.40;1.80;;;;;;;30.46;65.05;100469.84;4881596;29;20108;-77
2021/07/03 12:24:07;;;;;;;4.97;1.80;;;;;;;30.57;65.83;100469.56;4882024;29;20033;-78
2021/07/03 12:26:53;;;;;;;4.20;1.80;;;;;;;30.33;66.87;100462.16;4881709;29;20429;-78
2021/07/03 12:29:39;;;;;;;4.25;1.60;;;;;;;30.08;65.56;100462.94;4867328;29;20029;-78
2021/07/03 12:32:25;;;;;;;3.58;1.70;;;;;;;30.73;61.35;100469.69;4881821;29;20037;-78
2021/07/03 12:35:13;;;;;;;5.57;1.60;;;;;;;31.05;60.42;100462.56;4881374;29;20459;-78
2021/07/03 12:37:59;;;;;;;3.13;1.52;;;;;;;31.00;58.12;100448.69;4881568;29;20120;-78
2021/07/03 12:40:45;;;;;;;6.45;1.55;;;;;;;31.05;58.12;100451.75;4881118;29;20105;-78
2021/07/03 12:43:32;;;;;;;3.25;1.40;;;;;;;31.26;57.13;100443.22;4866505;29;20095;-78
2021/07/03 12:46:29;;;;;;;5.30;1.30;;;;;;;31.16;59.60;100450.59;4866972;29;20028;-77
2021/07/03 12:49:15;;;;;;;5.10;1.70;;;;;;;30.96;62.55;100451.88;4881552;29;20047;-78
2021/07/03 12:52:01;;;;;;;2.63;1.98;;;;;;;30.19;77.07;100451.94;4880979;29;20021;-76